createdAt,value
2022-11-16T00:01:46.355Z,29.73
2022-11-16T00:04:13.359Z,26.77
2022-11-16T00:06:40.549Z,28.07
2022-11-16T00:09:23.029Z,27.03
2022-11-16T00:11:52.466Z,26.87
2022-11-16T00:14:21.071Z,26.77
2022-11-16T00:16:48.232Z,28.57
2022-11-16T00:19:15.356Z,26.13
2022-11-16T00:21:45.091Z,29.30
2022-11-16T00:24:17.965Z,26.53
2022-11-16T00:26:45.435Z,26.47
2022-11-16T00:29:21.170Z,24.63
2022-11-16T00:31:49.103Z,26.43
2022-11-16T00:34:16.509Z,23.77
2022-11-16T00:36:43.534Z,24.33
2022-11-16T00:39:14.921Z,25.90
2022-11-16T00:41:42.470Z,25.07
2022-11-16T00:44:10.118Z,25.57
2022-11-16T00:46:37.593Z,25.67
2022-11-16T00:49:08.289Z,27.33
2022-11-16T00:51:36.469Z,26.07
2022-11-16T00:54:05.863Z,25.93
2022-11-16T00:56:36.048Z,25.27
2022-11-16T00:59:03.681Z,23.97
2022-11-16T01:01:30.593Z,23.63
2022-11-16T01:03:57.565Z,21.27
2022-11-16T01:06:24.485Z,22.00
2022-11-16T01:08:51.489Z,23.77
2022-11-16T01:11:37.601Z,20.93
2022-11-16T01:14:08.972Z,19.57
2022-11-16T01:16:36.208Z,22.80
2022-11-16T01:19:05.370Z,22.93
2022-11-16T01:21:33.136Z,22.93
2022-11-16T01:24:00.044Z,24.23
2022-11-16T01:26:26.941Z,23.40
2022-11-16T01:28:53.956Z,22.93
2022-11-16T01:31:21.582Z,22.37
2022-11-16T01:33:50.948Z,21.97
2022-11-16T01:36:22.693Z,22.87
2022-11-16T01:38:50.651Z,23.07
2022-11-16T01:41:25.094Z,21.13
2022-11-16T01:44:05.302Z,22.13
2022-11-16T01:46:41.402Z,21.40
2022-11-16T01:49:16.858Z,22.13
2022-11-16T01:51:49.757Z,23.70
2022-11-16T01:54:17.133Z,24.03
2022-11-16T01:56:56.013Z,23.20
2022-11-16T01:59:48.860Z,24.67
2022-11-16T02:02:19.806Z,27.50
2022-11-16T02:04:48.664Z,25.63
2022-11-16T02:08:00.617Z,27.67
2022-11-16T02:11:06.869Z,26.67
2022-11-16T02:13:59.031Z,26.70
2022-11-16T02:16:31.941Z,27.57
2022-11-16T02:19:33.896Z,24.80
2022-11-16T02:22:19.062Z,30.67
2022-11-16T02:24:57.114Z,25.87
2022-11-16T02:27:40.405Z,25.67
2022-11-16T02:30:07.538Z,24.23
2022-11-16T02:33:00.051Z,23.70
2022-11-16T02:35:33.700Z,25.23
2022-11-16T02:38:40.111Z,25.13
2022-11-16T02:41:12.026Z,24.23
2022-11-16T02:43:44.952Z,25.80
2022-11-16T02:46:30.176Z,24.13
2022-11-16T02:49:02.726Z,25.47
2022-11-16T02:51:31.417Z,23.83
2022-11-16T02:54:04.843Z,26.17
2022-11-16T02:56:41.895Z,24.30
2022-11-16T02:59:13.110Z,27.27
2022-11-16T03:01:52.161Z,26.07
2022-11-16T03:04:32.672Z,26.70
2022-11-16T03:07:03.998Z,27.43
2022-11-16T03:09:35.773Z,26.53
2022-11-16T03:12:10.998Z,26.70
2022-11-16T03:15:01.700Z,25.77
2022-11-16T03:17:44.565Z,25.17
2022-11-16T03:20:27.054Z,24.73
2022-11-16T03:23:05.214Z,23.97
2022-11-16T03:25:40.946Z,26.10
2022-11-16T03:28:20.208Z,26.70
2022-11-16T03:31:02.473Z,26.87
2022-11-16T03:33:34.576Z,24.73
2022-11-16T03:36:10.864Z,23.17
2022-11-16T03:38:40.776Z,23.40
2022-11-16T03:41:09.812Z,23.50
2022-11-16T03:43:39.014Z,24.37
2022-11-16T03:46:07.559Z,25.03
2022-11-16T03:48:40.099Z,24.57
2022-11-16T03:51:18.528Z,24.77
2022-11-16T03:53:45.416Z,24.30
2022-11-16T03:56:12.926Z,23.17
2022-11-16T03:58:39.913Z,25.00
2022-11-16T04:01:07.154Z,25.70
2022-11-16T04:03:34.254Z,24.77
2022-11-16T04:06:19.993Z,26.17
2022-11-16T04:09:05.731Z,26.20
2022-11-16T04:11:51.161Z,26.07
2022-11-16T04:14:39.631Z,24.73
2022-11-16T04:17:31.394Z,26.30
2022-11-16T04:20:16.839Z,23.87
2022-11-16T04:23:29.296Z,27.27
2022-11-16T04:25:56.516Z,24.20
2022-11-16T04:28:35.076Z,24.43
2022-11-16T04:31:23.665Z,26.03
2022-11-16T04:34:25.517Z,26.47
2022-11-16T04:37:14.112Z,26.67
2022-11-16T04:39:41.364Z,27.27
2022-11-16T04:42:19.701Z,26.53
2022-11-16T04:45:07.847Z,27.50
2022-11-16T04:47:54.906Z,24.87
2022-11-16T04:50:27.180Z,24.00
2022-11-16T04:52:54.196Z,24.50
2022-11-16T04:55:21.064Z,25.00
2022-11-16T04:57:49.583Z,25.70
2022-11-16T05:00:17.421Z,25.87
2022-11-16T05:02:45.280Z,25.47
2022-11-16T05:05:12.822Z,25.13
2022-11-16T05:07:43.032Z,25.70
2022-11-16T05:10:16.315Z,25.73
2022-11-16T05:12:43.444Z,27.07
2022-11-16T05:15:11.179Z,24.43
2022-11-16T05:17:40.037Z,26.73
2022-11-16T05:20:31.789Z,25.10
2022-11-16T05:23:03.826Z,24.77
2022-11-16T05:25:36.645Z,24.33
2022-11-16T05:28:06.646Z,23.37
2022-11-16T05:30:37.660Z,23.53
2022-11-16T05:33:05.717Z,25.27
2022-11-16T05:35:37.161Z,25.27
2022-11-16T05:38:04.062Z,25.87
2022-11-16T05:40:34.625Z,26.47
2022-11-16T05:43:01.539Z,25.97
2022-11-16T05:45:32.311Z,26.27
2022-11-16T05:48:00.576Z,26.47
2022-11-16T05:50:27.684Z,25.13
2022-11-16T05:53:06.411Z,27.30
2022-11-16T05:55:35.872Z,28.67
2022-11-16T05:58:02.855Z,27.30
2022-11-16T06:00:31.670Z,31.33
2022-11-16T06:03:00.020Z,30.00
2022-11-16T06:05:30.912Z,27.17
2022-11-16T06:07:59.261Z,31.33
2022-11-16T06:10:26.341Z,28.10
2022-11-16T06:12:54.229Z,29.17
2022-11-16T06:15:21.331Z,29.13
2022-11-16T06:17:48.243Z,28.43
2022-11-16T06:20:18.493Z,29.60
2022-11-16T06:22:47.145Z,29.47
2022-11-16T06:25:14.137Z,29.57
2022-11-16T06:27:43.729Z,31.00
2022-11-16T06:30:13.795Z,30.83
2022-11-16T06:32:41.637Z,31.63
2022-11-16T06:35:09.603Z,33.97
2022-11-16T06:37:37.682Z,34.97
2022-11-16T06:40:06.647Z,30.77
2022-11-16T06:42:37.036Z,32.50
2022-11-16T06:45:04.544Z,34.57
2022-11-16T06:47:37.756Z,34.57
2022-11-16T06:50:05.422Z,36.87
2022-11-16T06:52:33.989Z,31.17
2022-11-16T06:55:01.350Z,29.60
2022-11-16T06:57:35.588Z,29.30
2022-11-16T07:00:04.576Z,29.17
2022-11-16T07:02:33.834Z,27.67
2022-11-16T07:05:03.904Z,25.10
2022-11-16T07:07:33.301Z,26.03
2022-11-16T07:10:02.934Z,26.77
2022-11-16T07:12:31.385Z,26.00
2022-11-16T07:14:59.250Z,30.53
2022-11-16T07:17:29.743Z,29.83
2022-11-16T07:20:02.597Z,32.93
2022-11-16T07:22:34.589Z,32.17
2022-11-16T07:25:03.242Z,38.93
2022-11-16T07:27:30.215Z,38.10
2022-11-16T07:29:59.408Z,37.83
2022-11-16T07:32:58.240Z,33.90
2022-11-16T07:35:45.496Z,34.50
2022-11-16T07:38:17.727Z,33.40
2022-11-16T07:40:46.112Z,32.23
2022-11-16T07:43:16.483Z,33.63
2022-11-16T07:49:09.869Z,34.43
2022-11-16T07:51:51.238Z,33.10
2022-11-16T07:54:44.318Z,33.83
2022-11-16T07:57:11.392Z,33.13
2022-11-16T07:59:41.198Z,35.80
2022-11-16T08:02:10.363Z,34.17
2022-11-16T08:04:40.295Z,36.07
2022-11-16T08:07:09.156Z,37.73
2022-11-16T08:09:43.633Z,37.30
2022-11-16T08:12:15.348Z,41.40
2022-11-16T08:14:43.352Z,41.47
2022-11-16T08:17:12.275Z,42.97
2022-11-16T08:19:40.416Z,39.93
2022-11-16T08:22:09.732Z,38.40
2022-11-16T08:24:38.766Z,34.57
2022-11-16T08:27:05.787Z,33.93
2022-11-16T08:29:36.032Z,32.90
2022-11-16T08:32:05.421Z,32.13
2022-11-16T08:34:34.993Z,30.57
2022-11-16T08:37:03.989Z,28.87
2022-11-16T08:39:43.608Z,26.70
2022-11-16T08:42:10.666Z,28.47
2022-11-16T08:44:38.972Z,29.33
2022-11-16T08:47:10.881Z,28.37
2022-11-16T08:49:48.283Z,26.87
2022-11-16T08:52:30.428Z,26.93
2022-11-16T08:54:58.777Z,29.30
2022-11-16T08:57:26.012Z,28.67
2022-11-16T08:59:57.734Z,28.77
2022-11-16T09:02:25.781Z,27.47
2022-11-16T09:04:54.512Z,28.43
2022-11-16T09:07:22.673Z,26.80
2022-11-16T09:09:49.770Z,28.20
2022-11-16T09:15:01.751Z,25.80
2022-11-16T09:17:30.163Z,25.47
2022-11-16T09:19:57.115Z,27.47
2022-11-16T09:22:24.156Z,25.77
2022-11-16T09:24:51.179Z,25.87
2022-11-16T09:27:18.113Z,27.03
2022-11-16T09:29:44.934Z,26.57
2022-11-16T09:32:16.011Z,26.60
2022-11-16T09:35:37.259Z,25.90
2022-11-16T09:38:05.805Z,24.80
2022-11-16T09:40:42.278Z,23.43
2022-11-16T09:43:18.329Z,24.50
2022-11-16T09:46:29.691Z,22.03
2022-11-16T09:49:00.409Z,22.97
2022-11-16T09:54:27.622Z,21.47
2022-11-16T09:56:58.971Z,21.83
2022-11-16T09:59:51.148Z,23.67
2022-11-16T10:02:24.298Z,22.70
2022-11-16T10:05:17.767Z,21.93
2022-11-16T10:07:49.282Z,23.47
2022-11-16T10:10:34.938Z,19.00
2022-11-16T10:13:23.693Z,18.63
2022-11-16T10:15:53.624Z,18.90
2022-11-16T10:18:29.543Z,20.17
2022-11-16T10:21:13.994Z,19.90
2022-11-16T10:24:24.059Z,17.43
2022-11-16T10:26:51.534Z,16.73
2022-11-16T10:29:39.925Z,17.77
2022-11-16T10:32:28.324Z,17.83
2022-11-16T10:34:55.334Z,18.67
2022-11-16T10:37:27.783Z,18.37
2022-11-16T10:39:54.693Z,17.40
2022-11-16T10:42:35.808Z,17.23
2022-11-16T10:45:15.478Z,17.57
2022-11-16T10:47:51.225Z,16.23
2022-11-16T10:50:31.919Z,15.70
2022-11-16T10:53:01.314Z,16.77
2022-11-16T10:55:31.035Z,14.93
2022-11-16T10:58:03.005Z,15.33
2022-11-16T11:00:37.856Z,14.80
2022-11-16T11:03:06.991Z,15.77
2022-11-16T11:05:39.250Z,15.10
2022-11-16T11:08:11.437Z,14.57
2022-11-16T11:13:27.016Z,12.37
2022-11-16T11:16:17.992Z,13.47
2022-11-16T11:18:46.951Z,13.60
2022-11-16T11:21:19.460Z,14.57
2022-11-16T11:23:52.630Z,14.43
2022-11-16T11:26:42.929Z,14.40
2022-11-16T11:29:28.194Z,14.67
2022-11-16T11:32:00.142Z,14.53
2022-11-16T11:34:44.126Z,14.97
2022-11-16T11:37:19.887Z,12.97
2022-11-16T11:39:46.856Z,14.33
2022-11-16T11:42:13.693Z,15.10
2022-11-16T11:44:49.883Z,15.33
2022-11-16T11:47:58.791Z,15.57
2022-11-16T11:50:49.351Z,16.23
2022-11-16T11:53:39.943Z,14.47
2022-11-16T11:56:10.691Z,15.80
2022-11-16T11:58:41.161Z,16.93
2022-11-16T12:01:29.510Z,14.73
2022-11-16T12:03:56.329Z,14.17
2022-11-16T12:06:31.495Z,13.77
2022-11-16T12:09:28.209Z,13.53
2022-11-16T12:12:16.528Z,14.90
2022-11-16T12:15:18.011Z,15.30
2022-11-16T12:17:53.893Z,14.70
2022-11-16T12:20:30.121Z,13.30
2022-11-16T12:23:17.177Z,14.30
2022-11-16T12:25:55.005Z,12.33
2022-11-16T12:28:22.253Z,11.57
2022-11-16T12:31:22.780Z,10.40
2022-11-16T12:34:16.126Z,14.43
2022-11-16T12:37:21.343Z,14.63
2022-11-16T12:40:38.157Z,12.70
2022-11-16T12:43:18.274Z,14.03
2022-11-16T12:46:00.829Z,12.93
2022-11-16T12:48:50.936Z,13.27
2022-11-16T12:51:49.058Z,13.53
2022-11-16T12:54:18.810Z,12.77
2022-11-16T12:57:22.767Z,13.53
2022-11-16T13:00:12.096Z,14.60
2022-11-16T13:03:00.739Z,13.93
2022-11-16T13:05:54.452Z,15.00
2022-11-16T13:08:41.527Z,17.30
2022-11-16T13:11:18.830Z,16.73
2022-11-16T13:13:53.387Z,16.33
2022-11-16T13:16:24.007Z,17.97
2022-11-16T13:18:52.315Z,19.63
2022-11-16T13:21:35.706Z,18.67
2022-11-16T13:24:35.047Z,19.37
2022-11-16T13:27:39.357Z,18.97
2022-11-16T13:30:27.690Z,19.57
2022-11-16T13:33:22.482Z,18.40
2022-11-16T13:35:49.436Z,19.63
2022-11-16T13:38:54.473Z,19.90
2022-11-16T13:41:34.464Z,19.17
2022-11-16T13:44:20.454Z,18.67
2022-11-16T13:46:55.727Z,17.90
2022-11-16T13:49:28.782Z,17.93
2022-11-16T13:52:21.950Z,17.87
2022-11-16T13:54:53.688Z,19.87
2022-11-16T13:57:49.270Z,18.33
2022-11-16T14:00:33.610Z,18.77
2022-11-16T14:03:16.092Z,21.20
2022-11-16T14:05:44.295Z,21.20
2022-11-16T14:08:20.041Z,20.90
2022-11-16T14:10:52.879Z,23.27
2022-11-16T14:13:50.328Z,24.03
2022-11-16T14:16:17.720Z,24.53
2022-11-16T14:18:51.008Z,22.90
2022-11-16T14:21:20.619Z,20.93
2022-11-16T14:24:12.369Z,20.50
2022-11-16T14:27:16.974Z,20.77
2022-11-16T14:30:06.011Z,21.77
2022-11-16T14:32:47.225Z,21.63
2022-11-16T14:35:26.585Z,25.50
2022-11-16T14:41:20.993Z,22.57
2022-11-16T14:43:54.221Z,24.43
2022-11-16T14:49:48.802Z,22.87
2022-11-16T14:52:18.761Z,24.30
2022-11-16T14:54:55.349Z,24.23
2022-11-16T14:57:24.295Z,23.93
2022-11-16T15:00:09.656Z,24.27
2022-11-16T15:02:37.461Z,23.27
2022-11-16T15:05:06.955Z,25.27
2022-11-16T15:07:34.880Z,23.67
2022-11-16T15:10:02.110Z,24.97
2022-11-16T15:12:44.077Z,25.47
2022-11-16T15:15:10.926Z,25.30
2022-11-16T15:17:44.365Z,23.63
2022-11-16T15:20:19.837Z,25.00
2022-11-16T15:22:51.151Z,24.87
2022-11-16T15:25:34.440Z,25.40
2022-11-16T15:28:17.078Z,27.03
2022-11-16T15:30:51.036Z,24.97
2022-11-16T15:33:45.280Z,27.20
2022-11-16T15:36:31.477Z,27.43
2022-11-16T15:39:02.114Z,27.77
2022-11-16T15:41:30.234Z,26.53
2022-11-16T15:44:14.118Z,26.77
2022-11-16T15:46:47.357Z,26.00
2022-11-16T15:49:38.604Z,27.83
2022-11-16T15:52:05.925Z,28.87
2022-11-16T15:54:54.061Z,29.40
2022-11-16T15:57:23.485Z,31.83
2022-11-16T15:59:57.193Z,29.90
2022-11-16T16:02:29.839Z,30.37
2022-11-16T16:04:56.962Z,30.97
2022-11-16T16:07:42.613Z,34.73
2022-11-16T16:10:21.226Z,28.57
2022-11-16T16:12:52.914Z,29.23
2022-11-16T16:15:36.915Z,33.77
2022-11-16T16:18:40.639Z,35.47
2022-11-16T16:21:09.119Z,33.83
2022-11-16T16:23:51.525Z,37.10
2022-11-16T16:26:18.427Z,37.83
2022-11-16T16:28:47.213Z,35.87
2022-11-16T16:31:18.382Z,37.07
2022-11-16T16:33:45.408Z,35.87
2022-11-16T16:36:13.742Z,33.70
2022-11-16T16:38:43.996Z,40.27
2022-11-16T16:41:23.793Z,38.60
2022-11-16T16:43:54.157Z,37.80
2022-11-16T16:46:21.832Z,36.73
2022-11-16T16:48:49.179Z,37.80
2022-11-16T16:51:16.021Z,43.10
2022-11-16T16:53:42.880Z,48.87
2022-11-16T16:56:19.763Z,47.80
2022-11-16T16:58:58.819Z,42.73
2022-11-16T17:01:27.775Z,40.40
2022-11-16T17:03:56.162Z,38.30
2022-11-16T17:06:23.498Z,37.37
2022-11-16T17:08:51.313Z,38.50
2022-11-16T17:11:18.193Z,37.10
2022-11-16T17:13:45.702Z,36.27
2022-11-16T17:16:13.122Z,37.13
2022-11-16T17:18:40.951Z,36.27
2022-11-16T17:21:09.695Z,36.67
2022-11-16T17:23:37.634Z,35.63
2022-11-16T17:26:06.549Z,33.93
2022-11-16T17:28:34.004Z,39.17
2022-11-16T17:31:09.920Z,37.60
2022-11-16T17:33:41.680Z,36.17
2022-11-16T17:36:15.134Z,37.80
2022-11-16T17:38:42.090Z,35.87
2022-11-16T17:41:19.395Z,40.57
2022-11-16T17:43:47.247Z,39.63
2022-11-16T17:46:19.175Z,42.67
2022-11-16T17:48:47.835Z,43.53
2022-11-16T17:51:18.104Z,44.80
2022-11-16T17:53:45.671Z,46.20
2022-11-16T17:56:14.592Z,44.77
2022-11-16T17:58:41.778Z,44.83
2022-11-16T18:01:08.724Z,46.03
2022-11-16T18:03:37.366Z,47.43
2022-11-16T18:06:15.983Z,46.27
2022-11-16T18:08:45.653Z,45.13
2022-11-16T18:11:21.113Z,44.67
2022-11-16T18:13:51.788Z,45.13
2022-11-16T18:16:21.126Z,42.27
2022-11-16T18:18:50.214Z,43.47
2022-11-16T18:21:20.781Z,44.07
2022-11-16T18:23:48.132Z,40.40
2022-11-16T18:26:21.127Z,41.30
2022-11-16T18:28:49.411Z,38.30
2022-11-16T18:31:18.779Z,40.63
2022-11-16T18:33:47.107Z,41.03
2022-11-16T18:36:19.068Z,42.83
2022-11-16T18:38:47.689Z,43.13
2022-11-16T18:41:17.218Z,42.80
2022-11-16T18:43:52.688Z,44.47
2022-11-16T18:46:24.118Z,45.93
2022-11-16T18:48:51.664Z,45.53
2022-11-16T18:51:20.942Z,38.87
2022-11-16T18:53:48.877Z,38.10
2022-11-16T18:56:16.486Z,40.50
2022-11-16T18:58:52.330Z,38.33
2022-11-16T19:01:22.835Z,39.77
2022-11-16T19:03:51.181Z,40.17
2022-11-16T19:06:18.461Z,39.93
2022-11-16T19:08:53.740Z,42.43
2022-11-16T19:11:22.738Z,41.03
2022-11-16T19:14:04.180Z,37.43
2022-11-16T19:16:31.773Z,35.70
2022-11-16T19:18:59.960Z,36.37
2022-11-16T19:21:27.853Z,40.97
2022-11-16T19:23:56.228Z,39.13
2022-11-16T19:26:26.466Z,39.50
2022-11-16T19:28:54.162Z,44.47
2022-11-16T19:31:27.008Z,48.47
2022-11-16T19:34:02.249Z,50.00
2022-11-16T19:36:30.606Z,48.00
2022-11-16T19:38:57.824Z,46.23
2022-11-16T19:41:25.996Z,45.60
2022-11-16T19:43:59.073Z,43.40
2022-11-16T19:46:32.578Z,42.67
2022-11-16T19:49:00.472Z,43.73
2022-11-16T19:51:29.333Z,44.10
2022-11-16T19:53:56.978Z,41.57
2022-11-16T19:56:25.338Z,42.97
2022-11-16T19:58:52.749Z,43.10
2022-11-16T20:01:28.742Z,44.27
2022-11-16T20:03:57.944Z,45.03
2022-11-16T20:06:29.198Z,44.57
2022-11-16T20:09:03.725Z,42.23
2022-11-16T20:11:34.112Z,40.50
2022-11-16T20:14:03.049Z,41.33
2022-11-16T20:16:38.159Z,40.43
2022-11-16T20:19:07.532Z,42.07
2022-11-16T20:21:41.997Z,42.43
2022-11-16T20:24:14.419Z,42.47
2022-11-16T20:26:44.758Z,41.23
2022-11-16T20:29:12.935Z,40.20
2022-11-16T20:31:42.743Z,43.53
2022-11-16T20:34:14.198Z,38.97
2022-11-16T20:36:43.780Z,38.73
2022-11-16T20:39:16.238Z,37.03
2022-11-16T20:41:44.287Z,35.80
2022-11-16T20:44:18.299Z,35.53
2022-11-16T20:46:45.425Z,35.03
2022-11-16T20:49:12.692Z,35.00
2022-11-16T20:51:39.774Z,37.73
2022-11-16T20:54:07.100Z,38.87
2022-11-16T20:56:34.405Z,38.27
2022-11-16T20:59:01.919Z,37.63
2022-11-16T21:01:31.939Z,38.97
2022-11-16T21:04:05.983Z,38.63
2022-11-16T21:06:33.725Z,37.80
2022-11-16T21:09:01.025Z,38.60
2022-11-16T21:11:51.266Z,36.37
2022-11-16T21:14:19.434Z,38.73
2022-11-16T21:16:46.401Z,36.73
2022-11-16T21:19:13.584Z,40.43
2022-11-16T21:21:40.973Z,40.90
2022-11-16T21:24:09.011Z,44.17
2022-11-16T21:26:37.118Z,40.63
2022-11-16T21:29:04.640Z,38.10
2022-11-16T21:31:35.153Z,39.53
2022-11-16T21:34:02.899Z,41.30
2022-11-16T21:36:31.430Z,39.07
2022-11-16T21:38:58.641Z,39.47
2022-11-16T21:41:26.146Z,37.53
2022-11-16T21:43:53.419Z,38.50
2022-11-16T21:46:24.951Z,37.00
2022-11-16T21:48:53.733Z,37.97
2022-11-16T21:51:22.386Z,38.17
2022-11-16T21:53:49.291Z,38.77
2022-11-16T21:56:19.286Z,37.63
2022-11-16T21:58:46.598Z,37.83
2022-11-16T22:01:16.052Z,38.37
2022-11-16T22:03:44.746Z,39.23
2022-11-16T22:06:33.000Z,35.70
2022-11-16T22:09:00.181Z,36.70
2022-11-16T22:11:27.047Z,36.43
2022-11-16T22:13:53.850Z,35.60
2022-11-16T22:16:23.501Z,35.37
2022-11-16T22:18:51.101Z,34.83
2022-11-16T22:21:17.939Z,34.53
2022-11-16T22:23:45.073Z,34.77
2022-11-16T22:26:13.473Z,34.87
2022-11-16T22:28:40.725Z,34.47
2022-11-16T22:31:14.844Z,33.77
2022-11-16T22:33:42.272Z,37.00
2022-11-16T22:36:10.598Z,37.57
2022-11-16T22:38:38.036Z,34.90
2022-11-16T22:41:05.376Z,33.97
2022-11-16T22:43:32.869Z,34.07
2022-11-16T22:46:02.409Z,34.20
2022-11-16T22:48:36.586Z,36.37
2022-11-16T22:51:27.306Z,35.80
2022-11-16T22:53:59.208Z,36.07
2022-11-16T22:56:26.858Z,34.50
2022-11-16T22:58:54.190Z,36.50
2022-11-16T23:01:21.474Z,36.53
2022-11-16T23:03:48.802Z,33.33
2022-11-16T23:06:16.721Z,34.73
2022-11-16T23:08:43.663Z,37.77
2022-11-16T23:11:32.904Z,36.20
2022-11-16T23:14:18.791Z,36.33
2022-11-16T23:16:47.246Z,33.77
2022-11-16T23:19:35.337Z,35.27
2022-11-16T23:22:21.293Z,35.40
2022-11-16T23:25:06.962Z,34.47
2022-11-16T23:27:41.690Z,36.37
2022-11-16T23:30:12.760Z,33.63
2022-11-16T23:32:41.454Z,33.43
2022-11-16T23:35:09.203Z,35.47
2022-11-16T23:37:53.598Z,33.03
2022-11-16T23:40:22.077Z,33.67
2022-11-16T23:43:07.401Z,33.87
2022-11-16T23:45:34.256Z,33.03
2022-11-16T23:48:01.160Z,34.13
2022-11-16T23:50:28.153Z,36.73
2022-11-16T23:52:55.004Z,35.77
2022-11-16T23:55:23.206Z,33.83
2022-11-16T23:57:50.917Z,35.47
